Time;durP1;ratioP1;P1;durP2;ratioP2;P2;SDS_P1;SDS_P2;PMS_P1;PMS_P2;Temp;Humidity;BMP_temperature;BMP_pressure;BME280_temperature;BME280_humidity;BME280_pressure;Samples;Min_cycle;Max_cycle;Signal;HPM_P1;HPM_P2
2023/03/28 00:00:40;;;;;;;3.50;2.40;;;20.80;31.10;;;;;;4990553;28;20018;-50
2023/03/28 00:03:06;;;;;;;4.20;1.80;;;20.80;31.10;;;;;;4989855;28;20045;-54
2023/03/28 00:05:32;;;;;;;4.13;2.53;;;20.80;31.10;;;;;;4987697;28;20038;-51
2023/03/28 00:07:58;;;;;;;4.93;2.45;;;20.70;31.00;;;;;;4987592;28;20101;-47
2023/03/28 00:10:25;;;;;;;4.03;2.22;;;20.80;31.00;;;;;;4989964;28;20481;-50
2023/03/28 00:12:51;;;;;;;4.20;2.22;;;20.80;31.00;;;;;;4989140;28;20490;-56
2023/03/28 00:15:16;;;;;;;3.63;2.03;;;20.80;31.00;;;;;;4990080;28;20045;-51
2023/03/28 00:17:42;;;;;;;4.40;2.30;;;20.70;31.00;;;;;;4988291;28;20113;-51
2023/03/28 00:20:09;;;;;;;4.85;2.33;;;20.70;31.00;;;;;;4990436;28;20031;-52
2023/03/28 00:22:38;;;;;;;4.13;2.10;;;20.70;30.90;;;;;;4989546;28;20030;-50
2023/03/28 00:25:05;;;;;;;3.03;1.90;;;20.70;30.90;;;;;;4989978;28;20045;-53
2023/03/28 00:27:33;;;;;;;3.65;1.90;;;20.70;30.90;;;;;;4988316;28;20390;-53
2023/03/28 00:29:59;;;;;;;3.13;1.95;;;20.70;30.90;;;;;;4986737;28;20027;-53
2023/03/28 00:32:25;;;;;;;4.28;1.90;;;20.70;30.90;;;;;;4989151;28;22293;-53
2023/03/28 00:34:51;;;;;;;3.38;1.85;;;20.70;30.90;;;;;;4989258;28;20450;-53
2023/03/28 00:37:17;;;;;;;3.65;2.17;;;20.70;30.90;;;;;;4989922;28;20073;-52
2023/03/28 00:39:52;;;;;;;4.15;1.73;;;20.70;30.90;;;;;;4987240;28;20062;-52
2023/03/28 00:42:21;;;;;;;3.42;1.75;;;20.60;30.90;;;;;;4990720;28;20031;-54
2023/03/28 00:44:49;;;;;;;3.80;1.80;;;20.60;30.90;;;;;;4983708;28;20027;-49
2023/03/28 00:47:35;;;;;;;3.47;1.80;;;20.60;30.90;;;;;;4992744;28;20030;-53
2023/03/28 00:50:13;;;;;;;3.85;1.75;;;20.60;30.90;;;;;;4990852;28;20042;-53
2023/03/28 00:52:53;;;;;;;3.83;1.70;;;20.60;30.90;;;;;;4988538;28;20497;-51
2023/03/28 00:55:39;;;;;;;2.75;1.58;;;20.60;30.90;;;;;;4989293;28;20063;-53
2023/03/28 00:58:09;;;;;;;3.50;1.77;;;20.60;30.90;;;;;;4993668;28;20081;-55
2023/03/28 01:00:36;;;;;;;3.25;1.65;;;20.60;30.90;;;;;;4993245;28;20037;-54
2023/03/28 01:03:05;;;;;;;4.53;1.50;;;20.60;30.90;;;;;;4992657;28;20065;-54
2023/03/28 01:05:33;;;;;;;2.85;1.73;;;20.60;30.90;;;;;;4992342;28;20035;-55
2023/03/28 01:08:20;;;;;;;3.70;1.90;;;20.50;30.90;;;;;;4989876;28;20030;-53
2023/03/28 01:10:47;;;;;;;3.78;1.90;;;20.50;30.90;;;;;;4990485;28;20050;-53
2023/03/28 01:13:16;;;;;;;3.28;1.67;;;20.50;31.00;;;;;;4991885;28;20100;-49
2023/03/28 01:15:44;;;;;;;3.53;1.80;;;20.50;31.00;;;;;;4991335;28;20137;-51
2023/03/28 01:18:11;;;;;;;3.10;1.73;;;20.50;31.00;;;;;;4983588;28;20027;-52
2023/03/28 01:20:55;;;;;;;2.75;1.50;;;20.50;31.00;;;;;;4992623;28;20030;-54
2023/03/28 01:23:42;;;;;;;2.97;1.52;;;20.50;31.10;;;;;;4988631;28;20034;-53
2023/03/28 01:26:36;;;;;;;2.75;1.35;;;20.50;31.30;;;;;;4990764;28;20038;-53
2023/03/28 01:29:31;;;;;;;3.23;1.70;;;20.50;31.30;;;;;;4987777;28;20030;-55
2023/03/28 01:32:08;;;;;;;4.68;1.58;;;20.50;31.20;;;;;;4991851;28;20034;-49
2023/03/28 01:35:02;;;;;;;3.33;1.30;;;20.50;31.20;;;;;;4989796;28;20489;-54
2023/03/28 01:37:40;;;;;;;4.88;1.50;;;20.50;31.20;;;;;;4989766;28;21892;-54
2023/03/28 01:40:16;;;;;;;3.80;1.52;;;20.50;31.30;;;;;;4988110;28;20030;-52
2023/03/28 01:42:59;;;;;;;;;;;20.40;31.20;;;;;;4987954;28;20030;-53
2023/03/28 01:45:25;;;;;;;4.43;1.60;;;20.40;31.20;;;;;;4990555;28;19918;-55
2023/03/28 01:48:00;;;;;;;3.55;1.20;;;20.40;31.20;;;;;;4992837;28;20339;-54
2023/03/28 01:50:55;;;;;;;3.53;1.27;;;20.40;31.20;;;;;;4987432;28;20053;-51
2023/03/28 01:53:40;;;;;;;3.65;1.42;;;20.40;31.80;;;;;;4979014;28;20461;-49
2023/03/28 01:56:13;;;;;;;4.05;1.20;;;20.40;31.20;;;;;;4988968;28;20065;-53
2023/03/28 01:59:11;;;;;;;2.58;1.23;;;20.40;31.20;;;;;;4991729;28;20117;-54
2023/03/28 02:02:10;;;;;;;4.43;1.65;;;20.40;31.20;;;;;;4969332;28;20125;-51
2023/03/28 02:04:38;;;;;;;4.60;1.42;;;20.40;31.20;;;;;;4988930;28;20018;-49
2023/03/28 02:07:07;;;;;;;4.95;1.90;;;20.40;31.20;;;;;;4990578;28;20038;-48
2023/03/28 02:09:41;;;;;;;3.88;1.40;;;20.40;31.20;;;;;;4986601;28;20022;-51
2023/03/28 02:12:24;;;;;;;3.05;1.40;;;20.40;31.20;;;;;;4989609;28;20335;-50
2023/03/28 02:15:20;;;;;;;2.80;1.23;;;20.40;31.20;;;;;;4969855;28;20050;-50
2023/03/28 02:18:15;;;;;;;3.63;1.75;;;20.40;31.20;;;;;;4987777;28;20140;-51
2023/03/28 02:21:02;;;;;;;2.78;1.00;;;20.30;31.20;;;;;;4991084;28;20720;-52
2023/03/28 02:23:46;;;;;;;3.20;1.48;;;20.30;31.20;;;;;;4990899;28;20052;-51
2023/03/28 02:26:30;;;;;;;2.53;1.17;;;20.30;31.20;;;;;;4991199;28;20069;-51
2023/03/28 02:29:07;;;;;;;2.35;1.20;;;20.30;31.20;;;;;;4976904;28;20055;-52
2023/03/28 02:31:48;;;;;;;3.17;1.40;;;20.30;31.20;;;;;;4988995;28;20070;-51
2023/03/28 02:34:14;;;;;;;3.40;1.48;;;20.30;31.20;;;;;;4990532;28;20037;-52
2023/03/28 02:37:14;;;;;;;2.85;1.45;;;20.30;31.20;;;;;;4990099;28;20042;-49
2023/03/28 02:39:55;;;;;;;3.55;1.10;;;20.30;31.80;;;;;;4988793;28;20196;-48
2023/03/28 02:42:29;;;;;;;2.55;0.95;;;20.30;31.20;;;;;;4987778;28;20041;-51
2023/03/28 02:45:15;;;;;;;2.40;1.08;;;20.30;31.20;;;;;;4988108;28;20118;-53
2023/03/28 02:48:04;;;;;;;3.40;1.30;;;20.30;31.20;;;;;;4986682;28;20030;-50
2023/03/28 02:50:47;;;;;;;2.83;1.13;;;20.30;31.40;;;;;;4978077;28;20034;-50
2023/03/28 02:53:43;;;;;;;2.40;1.10;;;20.30;31.50;;;;;;4988608;28;20038;-50
2023/03/28 02:56:20;;;;;;;3.13;1.17;;;20.30;31.50;;;;;;4986910;28;20120;-50
2023/03/28 02:59:15;;;;;;;3.70;1.65;;;20.30;31.50;;;;;;4980768;28;20100;-54
2023/03/28 03:01:42;;;;;;;4.15;1.00;;;20.30;31.40;;;;;;4989792;28;20378;-53
2023/03/28 03:04:08;;;;;;;2.65;1.20;;;20.30;31.40;;;;;;4990954;28;20125;-54
2023/03/28 03:06:35;;;;;;;2.55;1.25;;;20.20;31.30;;;;;;4987754;28;20030;-54
2023/03/28 03:09:03;;;;;;;3.75;1.33;;;20.20;31.30;;;;;;4988816;28;20027;-51
2023/03/28 03:11:30;;;;;;;3.22;1.30;;;20.20;31.50;;;;;;4987706;28;20042;-51
2023/03/28 03:13:59;;;;;;;2.30;1.10;;;20.20;31.30;;;;;;4989840;28;20042;-53
2023/03/28 03:16:27;;;;;;;3.25;1.55;;;20.20;31.30;;;;;;4987073;28;20074;-54
2023/03/28 03:18:58;;;;;;;4.13;1.10;;;20.20;31.30;;;;;;4989093;28;20108;-51
2023/03/28 03:21:25;;;;;;;2.63;1.20;;;20.20;31.30;;;;;;4988555;28;20062;-54
2023/03/28 03:23:51;;;;;;;2.90;1.00;;;20.20;31.30;;;;;;4989448;28;20027;-51
2023/03/28 03:26:18;;;;;;;4.07;1.40;;;20.20;31.30;;;;;;4990071;28;20048;-52
2023/03/28 03:29:10;;;;;;;2.83;1.20;;;20.20;31.20;;;;;;4986203;28;20414;-52
2023/03/28 03:31:36;;;;;;;4.22;1.13;;;20.20;31.30;;;;;;4987454;28;20073;-50
2023/03/28 03:34:40;;;;;;;2.42;1.27;;;20.20;31.30;;;;;;4986449;28;20402;-53
2023/03/28 03:37:10;;;;;;;3.88;1.23;;;20.20;31.30;;;;;;4989048;28;20066;-52
2023/03/28 03:39:36;;;;;;;2.63;1.27;;;20.20;31.90;;;;;;4989426;28;20023;-51
2023/03/28 03:42:02;;;;;;;3.03;1.10;;;20.20;31.30;;;;;;4989761;28;20053;-51
2023/03/28 03:44:31;;;;;;;2.95;1.20;;;20.20;31.30;;;;;;4990303;28;20034;-54
2023/03/28 03:46:57;;;;;;;2.80;1.10;;;20.20;31.30;;;;;;4986572;28;20092;-56
2023/03/28 03:49:23;;;;;;;3.88;1.25;;;20.10;31.30;;;;;;4987266;28;20096;-53
2023/03/28 03:51:49;;;;;;;2.80;1.10;;;20.10;31.30;;;;;;4989227;28;20105;-50
2023/03/28 03:54:16;;;;;;;2.40;1.35;;;20.10;31.30;;;;;;4989017;28;20023;-51
2023/03/28 03:56:42;;;;;;;3.90;1.30;;;20.10;31.30;;;;;;4989793;28;20073;-49
2023/03/28 03:59:08;;;;;;;2.67;1.13;;;20.20;31.30;;;;;;4986865;28;20046;-52
2023/03/28 04:01:38;;;;;;;2.15;1.27;;;20.10;31.30;;;;;;4985804;28;20037;-53
2023/03/28 04:04:33;;;;;;;2.28;1.15;;;20.10;31.30;;;;;;4974235;28;20126;-54
2023/03/28 04:07:12;;;;;;;3.50;1.10;;;20.10;31.30;;;;;;4989471;28;20038;-52
2023/03/28 04:09:38;;;;;;;2.90;1.17;;;20.10;31.30;;;;;;4986962;28;20027;-54
2023/03/28 04:12:06;;;;;;;3.47;1.20;;;20.10;31.30;;;;;;4988691;28;20101;-53
2023/03/28 04:14:42;;;;;;;2.08;1.00;;;20.10;31.30;;;;;;4988919;28;20050;-53
2023/03/28 04:17:33;;;;;;;2.85;1.08;;;20.10;31.30;;;;;;4989736;28;20451;-54
2023/03/28 04:20:01;;;;;;;2.85;1.23;;;20.00;31.30;;;;;;4992869;28;20069;-54
2023/03/28 04:22:28;;;;;;;2.63;0.88;;;20.10;31.40;;;;;;4993244;28;20034;-54
2023/03/28 04:24:55;;;;;;;2.30;1.17;;;20.10;31.30;;;;;;4992012;28;20050;-51
2023/03/28 04:27:34;;;;;;;3.58;1.02;;;20.10;31.30;;;;;;4991037;28;20042;-51
2023/03/28 04:30:00;;;;;;;1.67;1.08;;;20.00;31.30;;;;;;4991574;28;20026;-51
2023/03/28 04:32:53;;;;;;;2.67;1.25;;;20.10;31.30;;;;;;4993239;28;20045;-50
2023/03/28 04:35:23;;;;;;;2.80;1.17;;;20.00;31.30;;;;;;4990726;28;20022;-52
2023/03/28 04:37:52;;;;;;;3.20;1.30;;;20.10;31.30;;;;;;4991811;28;20030;-52
2023/03/28 04:40:20;;;;;;;2.70;1.02;;;20.00;31.30;;;;;;4989763;28;20461;-52
2023/03/28 04:42:49;;;;;;;2.33;1.23;;;20.00;31.30;;;;;;4991142;28;20113;-54
2023/03/28 04:45:25;;;;;;;2.42;0.90;;;20.00;31.30;;;;;;4991797;28;20034;-47
2023/03/28 04:47:52;;;;;;;2.20;1.08;;;20.00;31.30;;;;;;4990924;28;20334;-50
2023/03/28 04:50:21;;;;;;;3.15;1.10;;;20.00;31.30;;;;;;4991435;28;20379;-50
2023/03/28 04:52:47;;;;;;;2.42;1.08;;;20.00;31.30;;;;;;4993197;28;20026;-50
2023/03/28 04:55:15;;;;;;;2.75;1.00;;;20.00;31.40;;;;;;4990046;28;20450;-48
2023/03/28 04:57:41;;;;;;;6.18;1.20;;;20.00;31.50;;;;;;4992078;28;20030;-47
2023/03/28 05:00:11;;;;;;;1.75;1.08;;;20.00;31.60;;;;;;4991153;28;20038;-52
2023/03/28 05:02:58;;;;;;;2.25;0.93;;;20.00;31.50;;;;;;4991581;28;20358;-51
2023/03/28 05:05:26;;;;;;;2.95;0.98;;;20.00;31.50;;;;;;4989332;28;20042;-48
2023/03/28 05:07:52;;;;;;;5.63;1.30;;;19.90;31.40;;;;;;4990931;28;20249;-51
2023/03/28 05:10:21;;;;;;;3.08;1.02;;;19.90;31.40;;;;;;4988610;28;20442;-52
2023/03/28 05:12:48;;;;;;;2.80;1.13;;;19.90;31.40;;;;;;4990396;28;20088;-51
2023/03/28 05:15:16;;;;;;;2.05;1.00;;;19.90;31.40;;;;;;4991790;28;20471;-53
2023/03/28 05:17:54;;;;;;;2.47;0.98;;;19.90;31.40;;;;;;4990406;28;20104;-51
2023/03/28 05:20:34;;;;;;;2.17;1.00;;;19.90;31.40;;;;;;4991878;28;20080;-51
2023/03/28 05:23:01;;;;;;;3.08;1.10;;;19.90;31.30;;;;;;4990853;28;20030;-49
2023/03/28 05:25:27;;;;;;;2.38;1.05;;;19.90;31.30;;;;;;4992194;28;20037;-52
2023/03/28 05:27:54;;;;;;;3.75;1.20;;;19.90;31.30;;;;;;4988049;28;20035;-53
2023/03/28 05:30:20;;;;;;;2.33;1.15;;;19.90;31.30;;;;;;4989992;28;20038;-51
2023/03/28 05:32:50;;;;;;;2.83;1.10;;;19.90;31.30;;;;;;4990944;28;20077;-52
2023/03/28 05:35:16;;;;;;;2.60;1.05;;;19.90;31.30;;;;;;4991812;28;20423;-49
2023/03/28 05:37:43;;;;;;;1.77;0.80;;;19.90;31.30;;;;;;4990091;28;20185;-47
2023/03/28 05:40:12;;;;;;;3.97;1.38;;;19.90;31.30;;;;;;4991245;28;20040;-50
2023/03/28 05:42:40;;;;;;;3.13;1.02;;;19.90;31.30;;;;;;4991360;28;20026;-51
2023/03/28 05:45:15;;;;;;;2.72;0.90;;;19.90;31.30;;;;;;4991833;28;20022;-52
2023/03/28 05:47:59;;;;;;;3.50;1.23;;;19.90;31.30;;;;;;4992985;28;20426;-51
2023/03/28 05:50:25;;;;;;;3.30;1.15;;;19.90;31.30;;;;;;4991429;28;20034;-49
2023/03/28 05:52:56;;;;;;;2.97;1.33;;;19.90;31.30;;;;;;4987346;28;20029;-50
2023/03/28 05:55:23;;;;;;;3.00;0.98;;;19.90;31.20;;;;;;4988352;28;20347;-51
2023/03/28 05:57:49;;;;;;;2.55;1.23;;;19.90;31.30;;;;;;4990500;28;20053;-52
2023/03/28 06:00:18;;;;;;;3.15;1.10;;;19.90;31.20;;;;;;4991129;28;20077;-53
2023/03/28 06:02:44;;;;;;;2.42;1.13;;;19.90;31.30;;;;;;4990212;28;20700;-50
2023/03/28 06:05:12;;;;;;;3.35;1.23;;;19.90;31.30;;;;;;4991763;28;20045;-49
2023/03/28 06:07:38;;;;;;;3.08;1.25;;;19.90;31.50;;;;;;4988698;28;20046;-48
2023/03/28 06:10:07;;;;;;;2.70;0.75;;;19.90;31.40;;;;;;4989515;28;20026;-51
2023/03/28 06:12:34;;;;;;;5.72;1.17;;;19.90;31.40;;;;;;4990804;28;20533;-52
2023/03/28 06:15:01;;;;;;;2.72;1.13;;;19.90;31.50;;;;;;4990765;28;20076;-53
2023/03/28 06:17:31;;;;;;;2.20;0.98;;;19.90;31.60;;;;;;4988739;28;20031;-51
2023/03/28 06:19:59;;;;;;;2.63;1.17;;;19.90;31.60;;;;;;4987980;28;20018;-51
2023/03/28 06:22:26;;;;;;;3.38;1.00;;;19.90;31.60;;;;;;4988632;28;20062;-51
2023/03/28 06:24:58;;;;;;;2.42;1.05;;;19.90;31.60;;;;;;4988563;28;20039;-50
2023/03/28 06:27:26;;;;;;;4.05;1.00;;;19.90;31.70;;;;;;4989399;28;20390;-54
2023/03/28 06:29:53;;;;;;;2.40;1.10;;;19.90;31.90;;;;;;4987869;28;20081;-52
2023/03/28 06:32:19;;;;;;;2.70;1.17;;;19.90;32.00;;;;;;4987298;28;20454;-50
2023/03/28 06:34:45;;;;;;;2.70;1.50;;;19.90;32.20;;;;;;4987762;28;20030;-54
2023/03/28 06:37:12;;;;;;;4.75;2.22;;;20.00;32.40;;;;;;4989315;28;20089;-52
2023/03/28 06:40:01;;;;;;;4.57;1.92;;;20.00;32.40;;;;;;4984393;28;20045;-53
2023/03/28 06:42:30;;;;;;;5.18;2.83;;;20.10;32.60;;;;;;4986749;28;20473;-53
2023/03/28 06:45:13;;;;;;;6.60;3.22;;;20.10;32.60;;;;;;4986525;28;20030;-50
2023/03/28 06:47:49;;;;;;;5.45;3.47;;;20.10;32.50;;;;;;4988663;28;20022;-51
2023/03/28 06:50:16;;;;;;;6.40;4.00;;;20.20;32.60;;;;;;4987638;28;20124;-52
2023/03/28 06:53:02;;;;;;;8.20;4.35;;;20.20;32.50;;;;;;4977789;28;20347;-53
2023/03/28 06:55:33;;;;;;;7.53;4.43;;;20.20;32.50;;;;;;4986407;28;20576;-54
2023/03/28 06:58:00;;;;;;;7.97;4.47;;;20.30;32.60;;;;;;4986644;28;20038;-55
2023/03/28 07:00:33;;;;;;;7.57;4.75;;;20.40;32.50;;;;;;4985789;28;20038;-53
2023/03/28 07:03:25;;;;;;;6.63;4.40;;;20.40;32.30;;;;;;4985304;28;20071;-53
2023/03/28 07:05:52;;;;;;;6.93;4.40;;;20.50;32.20;;;;;;4986157;28;20037;-49
2023/03/28 07:08:18;;;;;;;7.05;4.47;;;20.50;32.10;;;;;;4989720;28;20975;-54
2023/03/28 07:10:44;;;;;;;7.30;3.90;;;20.60;32.00;;;;;;4991605;28;20050;-52
2023/03/28 07:13:10;;;;;;;6.55;3.63;;;20.60;31.90;;;;;;4993013;28;20034;-54
2023/03/28 07:15:45;;;;;;;7.38;3.80;;;20.60;31.80;;;;;;4990811;28;20034;-53
2023/03/28 07:18:10;;;;;;;6.57;3.80;;;20.70;31.70;;;;;;4986985;28;20108;-48
2023/03/28 07:20:39;;;;;;;6.57;3.80;;;20.70;31.60;;;;;;4985079;28;20046;-51
2023/03/28 07:23:05;;;;;;;6.28;3.50;;;20.80;31.60;;;;;;4988805;28;20319;-51
2023/03/28 07:25:32;;;;;;;5.88;3.40;;;20.80;31.50;;;;;;4987205;28;20406;-54
2023/03/28 07:27:58;;;;;;;6.22;3.47;;;20.90;31.50;;;;;;4986865;28;20027;-52
2023/03/28 07:30:25;;;;;;;5.20;2.92;;;20.90;31.40;;;;;;4984884;28;20113;-50
2023/03/28 07:32:53;;;;;;;6.38;3.67;;;20.90;31.30;;;;;;4987580;28;20038;-50
2023/03/28 07:35:19;;;;;;;4.93;3.20;;;21.00;31.30;;;;;;4979210;28;20085;-54
2023/03/28 07:37:48;;;;;;;7.78;3.97;;;21.00;31.20;;;;;;4989307;28;20042;-47
2023/03/28 07:40:34;;;;;;;5.55;3.88;;;21.00;31.10;;;;;;4986707;28;20361;-51
2023/03/28 07:43:01;;;;;;;6.75;3.95;;;21.10;31.10;;;;;;4985381;28;21811;-54
2023/03/28 07:45:28;;;;;;;6.70;3.83;;;21.10;31.10;;;;;;4985160;28;20077;-52
2023/03/28 07:47:54;;;;;;;7.07;4.10;;;21.10;31.10;;;;;;4984505;28;20036;-51
2023/03/28 07:50:21;;;;;;;7.55;4.30;;;21.10;31.00;;;;;;4986521;28;20026;-50
2023/03/28 07:52:49;;;;;;;5.22;3.92;;;21.20;31.00;;;;;;4985681;28;20022;-50
2023/03/28 07:55:15;;;;;;;7.40;4.40;;;21.20;31.00;;;;;;4985004;28;20026;-54
2023/03/28 07:57:45;;;;;;;6.72;4.40;;;21.20;30.90;;;;;;4988475;28;20047;-49
2023/03/28 08:00:22;;;;;;;6.53;4.43;;;21.20;30.80;;;;;;4985507;28;20081;-50
2023/03/28 08:03:08;;;;;;;6.72;4.63;;;21.20;30.80;;;;;;4990889;28;20034;-52
2023/03/28 08:05:36;;;;;;;7.47;4.70;;;21.20;30.80;;;;;;4992031;28;20053;-51
2023/03/28 08:08:04;;;;;;;8.15;5.38;;;21.20;30.80;;;;;;4991195;28;20153;-53
2023/03/28 08:10:31;;;;;;;6.82;4.95;;;21.20;30.80;;;;;;4992506;28;20018;-51
2023/03/28 08:12:57;;;;;;;6.95;5.20;;;21.20;30.70;;;;;;4975416;28;20120;-50
2023/03/28 08:15:23;;;;;;;8.35;5.20;;;21.30;30.70;;;;;;4990019;28;20026;-51
2023/03/28 08:17:49;;;;;;;8.40;5.80;;;21.30;30.70;;;;;;4992387;28;20446;-51
2023/03/28 08:20:15;;;;;;;8.00;5.80;;;21.20;30.60;;;;;;4988805;28;20061;-53
2023/03/28 08:22:55;;;;;;;8.85;6.75;;;21.30;30.70;;;;;;4991717;28;20026;-50
2023/03/28 08:25:39;;;;;;;10.90;6.50;;;21.30;30.70;;;;;;4993187;28;20429;-52
2023/03/28 08:28:06;;;;;;;9.38;6.82;;;21.30;30.70;;;;;;4991921;28;20022;-50
2023/03/28 08:30:33;;;;;;;10.85;7.35;;;21.30;30.70;;;;;;4991093;28;20033;-54
2023/03/28 08:33:03;;;;;;;11.05;7.60;;;21.30;30.60;;;;;;4973391;28;20055;-51
2023/03/28 08:35:30;;;;;;;9.93;7.57;;;21.30;30.60;;;;;;4992097;28;20042;-53
2023/03/28 08:37:59;;;;;;;8.93;7.03;;;21.30;30.60;;;;;;4990072;28;20458;-53
2023/03/28 08:40:27;;;;;;;11.45;7.65;;;21.30;30.60;;;;;;4992184;28;20034;-54
2023/03/28 08:43:17;;;;;;;10.98;7.80;;;21.30;30.60;;;;;;4990681;28;20038;-53
2023/03/28 08:45:56;;;;;;;13.50;8.07;;;21.30;30.50;;;;;;4983261;28;20086;-52
2023/03/28 08:48:38;;;;;;;11.10;8.35;;;21.30;30.50;;;;;;4991929;28;20399;-52
2023/03/28 08:51:27;;;;;;;11.20;8.20;;;21.30;30.50;;;;;;4981381;28;20038;-53
2023/03/28 08:54:20;;;;;;;11.23;8.95;;;21.30;30.40;;;;;;4990763;28;20113;-49
2023/03/28 08:56:52;;;;;;;12.75;9.20;;;21.30;30.50;;;;;;4991339;28;20072;-51
2023/03/28 08:59:39;;;;;;;12.93;9.07;;;21.30;31.10;;;;;;4991533;28;20038;-50
2023/03/28 09:02:26;;;;;;;12.48;9.27;;;21.40;30.40;;;;;;4981660;28;20034;-53
2023/03/28 09:04:53;;;;;;;10.38;8.15;;;21.40;30.30;;;;;;4994599;28;20022;-54
2023/03/28 09:07:45;;;;;;;11.15;8.35;;;21.40;30.90;;;;;;4995321;28;20397;-52
2023/03/28 09:10:26;;;;;;;11.85;9.30;;;21.40;30.20;;;;;;4984967;28;20061;-54
2023/03/28 09:13:24;;;;;;;13.05;9.05;;;21.40;30.10;;;;;;4993825;28;20062;-53
2023/03/28 09:16:01;;;;;;;13.52;9.60;;;21.40;30.10;;;;;;4993630;28;20190;-46
2023/03/28 09:18:41;;;;;;;14.70;9.60;;;21.50;30.10;;;;;;4993172;28;20038;-53
2023/03/28 09:21:26;;;;;;;12.02;9.07;;;21.40;30.00;;;;;;4992017;28;20041;-50
2023/03/28 09:24:14;;;;;;;12.98;9.38;;;21.50;30.00;;;;;;4994595;28;20026;-51
2023/03/28 09:27:12;;;;;;;13.40;9.48;;;21.50;30.00;;;;;;4995317;28;20050;-50
2023/03/28 09:29:41;;;;;;;13.70;10.45;;;21.50;29.90;;;;;;4994751;28;20049;-51
2023/03/28 09:32:37;;;;;;;14.18;10.63;;;21.50;29.90;;;;;;4992645;28;20485;-52
2023/03/28 09:35:15;;;;;;;13.27;10.18;;;21.60;29.80;;;;;;4988734;28;20510;-52
2023/03/28 09:37:47;;;;;;;15.63;10.75;;;21.60;29.80;;;;;;4994752;28;20577;-51
2023/03/28 09:40:27;;;;;;;13.63;10.60;;;21.60;29.70;;;;;;4993215;28;20030;-52
2023/03/28 09:43:26;;;;;;;15.85;12.05;;;21.60;29.70;;;;;;4995576;28;20037;-51
2023/03/28 09:46:38;;;;;;;17.75;12.52;;;21.60;29.60;;;;;;4966886;28;20034;-53
2023/03/28 09:49:29;;;;;;;14.75;11.13;;;21.60;30.00;;;;;;4986456;28;20347;-53
2023/03/28 09:52:17;;;;;;;17.10;12.20;;;21.60;29.50;;;;;;4994843;28;20022;-53
2023/03/28 09:54:43;;;;;;;18.77;12.45;;;21.60;29.90;;;;;;4991181;28;20030;-50
2023/03/28 09:57:09;;;;;;;16.08;12.43;;;21.60;29.40;;;;;;4993634;28;20378;-53
2023/03/28 10:00:01;;;;;;;21.33;14.73;;;21.60;29.40;;;;;;4993026;28;20018;-55
2023/03/28 10:02:39;;;;;;;21.88;17.00;;;21.70;29.50;;;;;;4992535;28;20109;-52
2023/03/28 10:05:46;;;;;;;27.27;20.58;;;21.70;29.50;;;;;;4991822;28;20046;-53
2023/03/28 10:08:39;;;;;;;29.25;22.70;;;21.70;29.70;;;;;;4935445;29;20131;-58
2023/03/28 10:11:19;;;;;;;29.90;23.38;;;21.70;30.50;;;;;;4994352;28;20541;-53
2023/03/28 10:13:48;;;;;;;30.88;21.40;;;21.70;31.00;;;;;;4992792;28;20046;-54
2023/03/28 10:16:26;;;;;;;26.02;19.73;;;21.70;31.10;;;;;;4992689;28;20133;-50
2023/03/28 10:19:22;;;;;;;25.33;19.52;;;21.70;31.00;;;;;;4989422;28;20093;-53
2023/03/28 10:22:29;;;;;;;27.13;20.45;;;21.80;30.80;;;;;;4984869;28;20384;-55
2023/03/28 10:24:57;;;;;;;24.23;19.30;;;21.80;30.50;;;;;;4994495;28;20118;-53
2023/03/28 10:27:25;;;;;;;24.05;18.85;;;21.80;30.20;;;;;;4976185;28;20104;-57
2023/03/28 10:29:54;;;;;;;25.73;18.02;;;21.90;30.00;;;;;;5012021;28;20033;-53
2023/03/28 10:32:29;;;;;;;22.05;15.52;;;21.90;30.00;;;;;;4993747;28;20049;-52
2023/03/28 10:35:26;;;;;;;21.10;15.88;;;22.00;29.90;;;;;;4988805;28;20046;-53
2023/03/28 10:38:20;;;;;;;21.77;15.57;;;22.10;29.70;;;;;;4994496;28;20138;-54
2023/03/28 10:41:25;;;;;;;23.80;17.75;;;22.20;29.60;;;;;;4988888;28;20469;-55
2023/03/28 10:44:18;;;;;;;24.73;19.27;;;22.20;29.40;;;;;;4975572;28;20177;-52
2023/03/28 10:47:05;;;;;;;27.27;20.77;;;22.30;29.40;;;;;;4986907;28;20030;-55
2023/03/28 10:49:52;;;;;;;26.45;20.23;;;22.40;29.50;;;;;;4991666;28;20030;-50
2023/03/28 10:53:04;;;;;;;27.33;20.20;;;22.40;29.60;;;;;;4990792;28;20197;-54
2023/03/28 10:55:41;;;;;;;24.38;18.63;;;22.50;29.70;;;;;;4990335;28;20033;-54
2023/03/28 10:58:49;;;;;;;21.50;16.45;;;22.60;29.70;;;;;;4990464;28;20066;-54
2023/03/28 11:01:28;;;;;;;27.17;15.00;;;22.70;29.60;;;;;;4971248;28;20066;-55
2023/03/28 11:04:12;;;;;;;17.55;13.73;;;22.80;29.50;;;;;;4989205;28;20026;-53
2023/03/28 11:06:50;;;;;;;;;;;22.80;29.30;;;;;;4994211;28;20361;-54
2023/03/28 11:09:48;;;;;;;11.73;9.27;;;22.90;29.30;;;;;;4990450;28;19924;-55
2023/03/28 11:13:04;;;;;;;10.68;8.07;;;22.90;29.10;;;;;;4987832;28;20598;-54
2023/03/28 11:15:46;;;;;;;10.30;7.68;;;23.00;29.10;;;;;;4993892;28;20037;-58
2023/03/28 11:18:57;;;;;;;11.57;7.85;;;23.10;28.90;;;;;;4991199;28;20466;-54
2023/03/28 11:22:08;;;;;;;11.63;8.05;;;23.10;28.80;;;;;;4989427;28;20497;-53
2023/03/28 11:24:40;;;;;;;10.65;7.40;;;23.20;28.60;;;;;;4994748;28;20470;-55
2023/03/28 11:27:41;;;;;;;10.50;7.90;;;23.20;28.30;;;;;;4991903;28;20027;-55
2023/03/28 11:30:19;;;;;;;9.95;6.40;;;23.30;28.10;;;;;;4986832;28;20126;-51
2023/03/28 11:33:33;;;;;;;8.52;6.15;;;23.30;28.10;;;;;;4986589;28;20029;-56
2023/03/28 11:36:17;;;;;;;9.00;6.10;;;23.30;27.90;;;;;;4986452;28;20040;-55
2023/03/28 11:38:50;;;;;;;10.40;6.07;;;23.40;28.00;;;;;;4984365;28;20034;-57
2023/03/28 11:41:20;;;;;;;8.07;5.35;;;23.40;27.90;;;;;;4990166;28;20109;-54
2023/03/28 11:44:21;;;;;;;;;;;23.50;28.00;;;;;;4935214;29;20170;-48
2023/03/28 11:47:00;;;;;;;8.95;4.70;;;23.50;28.00;;;;;;4976187;28;20351;-53
2023/03/28 11:49:33;;;;;;;7.80;5.10;;;23.50;28.10;;;;;;4990019;28;20031;-54
2023/03/28 11:52:06;;;;;;;9.77;5.50;;;23.50;28.10;;;;;;4990881;28;20037;-55
2023/03/28 11:55:00;;;;;;;10.27;6.38;;;23.60;28.10;;;;;;4990800;28;20082;-52
2023/03/28 11:57:29;;;;;;;;;;;23.60;28.10;;;;;;4970165;28;20382;-51
2023/03/28 12:00:19;;;;;;;7.90;5.65;;;23.60;28.10;;;;;;4991207;28;19910;-50
2023/03/28 12:02:56;;;;;;;10.60;6.93;;;23.60;28.10;;;;;;4984124;28;20023;-53
2023/03/28 12:05:34;;;;;;;9.95;6.90;;;23.70;28.20;;;;;;4988910;28;20176;-51
2023/03/28 12:08:06;;;;;;;8.82;6.15;;;23.70;28.20;;;;;;4988256;28;20065;-56
2023/03/28 12:10:36;;;;;;;9.95;7.30;;;23.70;28.20;;;;;;4985348;28;20465;-53
2023/03/28 12:13:22;;;;;;;10.05;7.10;;;23.80;28.10;;;;;;4988238;28;20049;-51
2023/03/28 12:16:06;;;;;;;9.65;7.00;;;23.80;28.00;;;;;;4985344;28;20469;-50
2023/03/28 12:18:45;;;;;;;9.85;6.85;;;23.90;27.90;;;;;;4996559;28;20041;-49
2023/03/28 12:21:55;;;;;;;8.18;5.95;;;23.90;27.80;;;;;;4990837;28;20034;-50
2023/03/28 12:24:48;;;;;;;7.87;4.97;;;23.90;27.80;;;;;;4973718;28;20030;-52
2023/03/28 12:27:35;;;;;;;5.63;3.80;;;23.90;27.80;;;;;;4991337;28;20297;-53
2023/03/28 12:30:22;;;;;;;10.57;3.90;;;23.90;27.70;;;;;;4989496;28;20040;-55
2023/03/28 12:33:02;;;;;;;5.30;3.53;;;23.90;27.70;;;;;;4986745;28;20097;-56
2023/03/28 12:35:40;;;;;;;8.05;4.20;;;23.90;27.80;;;;;;4985617;28;20027;-58
2023/03/28 12:38:31;;;;;;;7.10;4.40;;;23.90;27.90;;;;;;4987729;28;20035;-55
2023/03/28 12:41:18;;;;;;;9.80;5.35;;;23.90;28.00;;;;;;4979147;28;20443;-51
2023/03/28 12:43:55;;;;;;;7.97;5.45;;;23.90;28.10;;;;;;4994986;28;20034;-53
2023/03/28 12:46:35;;;;;;;8.68;5.60;;;23.90;28.10;;;;;;4992107;28;20044;-54
2023/03/28 12:49:09;;;;;;;8.05;5.43;;;24.00;28.10;;;;;;4996309;28;20031;-53
2023/03/28 12:51:45;;;;;;;8.35;5.70;;;24.00;28.10;;;;;;4993731;28;20335;-53
2023/03/28 12:54:14;;;;;;;9.40;6.03;;;24.00;28.10;;;;;;4991109;28;20088;-52
2023/03/28 12:56:58;;;;;;;11.70;6.78;;;24.00;28.10;;;;;;4992994;28;20121;-56
2023/03/28 12:59:40;;;;;;;10.63;7.65;;;24.00;28.10;;;;;;4984804;28;20045;-56
2023/03/28 13:02:45;;;;;;;10.65;7.43;;;24.00;28.20;;;;;;4966758;28;20089;-57
2023/03/28 13:05:46;;;;;;;10.77;7.47;;;24.10;28.30;;;;;;4994878;28;20366;-58
2023/03/28 13:08:56;;;;;;;13.77;8.38;;;24.10;28.40;;;;;;4981190;28;20121;-59
2023/03/28 13:12:00;;;;;;;13.77;9.25;;;24.10;28.50;;;;;;4992350;28;20034;-59
2023/03/28 13:14:41;;;;;;;16.38;9.82;;;24.20;28.90;;;;;;4994040;28;20054;-52
2023/03/28 13:17:25;;;;;;;14.95;10.13;;;24.20;29.20;;;;;;4996573;28;20116;-54
2023/03/28 13:19:52;;;;;;;15.30;10.83;;;24.20;29.30;;;;;;4988662;28;20034;-55
2023/03/28 13:22:25;;;;;;;18.52;12.07;;;24.20;29.30;;;;;;4993798;28;20380;-52
2023/03/28 13:24:52;;;;;;;16.40;11.30;;;24.20;29.20;;;;;;4996603;28;20342;-50
2023/03/28 13:27:32;;;;;;;17.05;12.15;;;24.20;29.10;;;;;;4993290;28;20035;-49
2023/03/28 13:30:13;;;;;;;14.63;11.45;;;24.20;29.10;;;;;;4990110;28;20358;-55
2023/03/28 13:32:51;;;;;;;15.90;12.48;;;24.20;29.00;;;;;;4990384;28;20117;-51